createdAt,value
2022-10-22T00:01:03.422Z,27.30
2022-10-22T00:03:30.272Z,29.00
2022-10-22T00:05:57.003Z,27.40
2022-10-22T00:08:23.584Z,26.95
2022-10-22T00:10:50.285Z,27.13
2022-10-22T00:13:16.887Z,25.75
2022-10-22T00:15:43.560Z,24.50
2022-10-22T00:18:10.495Z,22.40
2022-10-22T00:20:37.250Z,20.55
2022-10-22T00:23:03.939Z,21.65
2022-10-22T00:25:30.897Z,21.25
2022-10-22T00:27:57.502Z,21.95
2022-10-22T00:30:24.210Z,22.55
2022-10-22T00:32:50.805Z,20.13
2022-10-22T00:35:17.604Z,20.58
2022-10-22T00:37:44.174Z,21.10
2022-10-22T00:40:11.766Z,19.58
2022-10-22T00:42:39.079Z,18.77
2022-10-22T00:45:11.147Z,19.75
2022-10-22T00:47:47.409Z,20.23
2022-10-22T00:50:26.623Z,20.35
2022-10-22T00:52:55.001Z,23.73
2022-10-22T00:55:22.846Z,23.33
2022-10-22T00:57:49.598Z,23.42
2022-10-22T01:00:17.030Z,23.67
2022-10-22T01:02:44.316Z,21.63
2022-10-22T01:05:11.002Z,26.15
2022-10-22T01:07:53.153Z,26.25
2022-10-22T01:10:45.602Z,22.55
2022-10-22T01:13:52.060Z,28.08
2022-10-22T01:16:27.631Z,29.80
2022-10-22T01:19:15.343Z,32.42
2022-10-22T01:21:49.671Z,33.42
2022-10-22T01:24:48.509Z,36.80
2022-10-22T01:27:20.410Z,36.97
2022-10-22T01:29:52.632Z,37.70
2022-10-22T01:32:26.904Z,35.92
2022-10-22T01:35:01.221Z,38.25
2022-10-22T01:37:31.559Z,36.65
2022-10-22T01:40:00.828Z,37.97
2022-10-22T01:42:27.592Z,34.72
2022-10-22T01:44:54.246Z,34.53
2022-10-22T01:47:36.630Z,35.15
2022-10-22T01:50:24.364Z,34.70
2022-10-22T01:53:09.773Z,35.33
2022-10-22T01:55:56.260Z,37.08
2022-10-22T01:58:22.818Z,38.35
2022-10-22T02:01:26.288Z,38.00
2022-10-22T02:04:16.821Z,35.40
2022-10-22T02:06:45.392Z,36.45
2022-10-22T02:09:15.770Z,37.00
2022-10-22T02:11:43.949Z,36.88
2022-10-22T02:14:12.606Z,38.40
2022-10-22T02:16:44.331Z,37.85
2022-10-22T02:19:26.074Z,40.05
2022-10-22T02:21:53.710Z,36.83
2022-10-22T02:24:21.619Z,36.08
2022-10-22T02:26:57.523Z,36.00
2022-10-22T02:29:37.874Z,34.50
2022-10-22T02:32:07.321Z,36.10
2022-10-22T02:34:34.189Z,37.22
2022-10-22T02:37:03.093Z,34.10
2022-10-22T02:39:31.599Z,34.33
2022-10-22T02:41:58.329Z,35.10
2022-10-22T02:44:25.245Z,29.60
2022-10-22T02:46:52.098Z,21.15
2022-10-22T02:49:18.732Z,24.23
2022-10-22T02:51:45.493Z,20.50
2022-10-22T02:54:12.113Z,22.23
2022-10-22T02:56:38.960Z,20.63
2022-10-22T02:59:05.546Z,21.73
2022-10-22T03:01:32.226Z,20.95
2022-10-22T03:03:58.843Z,21.13
2022-10-22T03:08:57.311Z,23.35
2022-10-22T03:11:24.029Z,22.00
2022-10-22T03:13:50.625Z,24.27
2022-10-22T03:16:17.385Z,23.30
2022-10-22T03:18:44.006Z,24.52
2022-10-22T03:21:24.306Z,21.65
2022-10-22T03:23:52.129Z,19.40
2022-10-22T03:26:19.110Z,21.80
2022-10-22T03:28:47.806Z,21.33
2022-10-22T03:31:14.734Z,17.75
2022-10-22T03:33:41.470Z,15.63
2022-10-22T03:36:09.057Z,14.00
2022-10-22T03:38:37.640Z,14.80
2022-10-22T03:41:04.593Z,14.23
2022-10-22T03:43:31.194Z,13.65
2022-10-22T03:45:57.841Z,12.95
2022-10-22T03:48:24.497Z,11.32
2022-10-22T03:50:51.111Z,11.27
2022-10-22T03:53:17.688Z,12.70
2022-10-22T03:55:44.279Z,13.73
2022-10-22T03:58:10.848Z,12.15
2022-10-22T04:00:37.463Z,11.10
2022-10-22T04:03:04.531Z,12.35
2022-10-22T04:05:33.350Z,10.43
2022-10-22T04:08:00.469Z,11.73
2022-10-22T04:10:27.095Z,9.80
2022-10-22T04:12:53.693Z,10.32
2022-10-22T04:15:20.362Z,10.75
2022-10-22T04:17:47.121Z,12.30
2022-10-22T04:20:13.861Z,15.23
2022-10-22T04:22:40.590Z,23.92
2022-10-22T04:25:07.434Z,24.83
2022-10-22T04:27:35.512Z,27.58
2022-10-22T04:30:02.882Z,32.85
2022-10-22T04:32:29.607Z,24.63
2022-10-22T04:34:56.241Z,21.85
2022-10-22T04:37:22.921Z,21.00
2022-10-22T04:39:49.521Z,21.80
2022-10-22T04:42:16.159Z,20.70
2022-10-22T04:44:42.816Z,20.80
2022-10-22T04:47:09.424Z,19.73
2022-10-22T04:49:36.022Z,19.23
2022-10-22T04:52:02.596Z,19.35
2022-10-22T04:54:32.243Z,20.77
2022-10-22T04:56:59.869Z,17.83
2022-10-22T04:59:26.542Z,20.38
2022-10-22T05:01:53.156Z,19.02
2022-10-22T05:04:19.899Z,17.70
2022-10-22T05:06:47.028Z,17.05
2022-10-22T05:09:20.117Z,15.13
2022-10-22T05:11:50.598Z,17.77
2022-10-22T05:14:20.873Z,14.43
2022-10-22T05:16:48.566Z,14.75
2022-10-22T05:19:27.471Z,14.18
2022-10-22T05:21:56.999Z,13.70
2022-10-22T05:24:23.729Z,13.52
2022-10-22T05:26:51.980Z,12.82
2022-10-22T05:29:19.027Z,11.50
2022-10-22T05:31:45.747Z,13.55
2022-10-22T05:34:13.140Z,13.25
2022-10-22T05:36:39.880Z,14.02
2022-10-22T05:39:06.849Z,14.88
2022-10-22T05:41:38.080Z,14.35
2022-10-22T05:44:05.637Z,13.90
2022-10-22T05:46:35.937Z,13.70
2022-10-22T05:49:05.272Z,13.65
2022-10-22T05:51:34.153Z,14.48
2022-10-22T05:54:03.038Z,13.37
2022-10-22T05:56:31.966Z,13.97
2022-10-22T05:58:58.923Z,11.73
2022-10-22T06:01:35.664Z,10.35
2022-10-22T06:04:06.546Z,10.05
2022-10-22T06:06:47.976Z,9.95
2022-10-22T06:09:35.337Z,8.43
2022-10-22T06:12:02.753Z,8.55
2022-10-22T06:14:32.193Z,7.78
2022-10-22T06:17:00.358Z,7.85
2022-10-22T06:19:27.189Z,8.02
2022-10-22T06:21:54.138Z,7.57
2022-10-22T06:24:20.813Z,7.68
2022-10-22T06:26:51.494Z,7.72
2022-10-22T06:29:18.186Z,7.63
2022-10-22T06:31:45.129Z,7.50
2022-10-22T06:34:13.990Z,8.13
2022-10-22T06:36:43.680Z,7.83
2022-10-22T06:41:41.015Z,8.65
2022-10-22T06:44:08.003Z,9.25
2022-10-22T06:46:34.645Z,8.45
2022-10-22T06:49:03.027Z,9.13
2022-10-22T06:51:29.752Z,8.63
2022-10-22T06:53:57.485Z,8.95
2022-10-22T06:56:26.088Z,9.15
2022-10-22T06:58:54.692Z,8.50
2022-10-22T07:01:29.564Z,8.60
2022-10-22T07:03:56.387Z,7.53
2022-10-22T07:06:24.342Z,6.32
2022-10-22T07:08:51.853Z,6.00
2022-10-22T07:11:21.525Z,5.93
2022-10-22T07:13:49.569Z,5.70
2022-10-22T07:16:17.757Z,5.35
2022-10-22T07:18:45.490Z,5.43
2022-10-22T07:21:13.481Z,5.05
2022-10-22T07:23:40.106Z,5.80
2022-10-22T07:26:08.499Z,5.10
2022-10-22T07:28:37.950Z,4.30
2022-10-22T07:31:05.220Z,4.55
2022-10-22T07:33:32.262Z,3.78
2022-10-22T07:36:00.685Z,4.07
2022-10-22T07:38:28.587Z,4.00
2022-10-22T07:40:55.577Z,3.67
2022-10-22T07:43:22.147Z,3.83
2022-10-22T07:45:48.776Z,3.70
2022-10-22T07:48:16.095Z,3.92
2022-10-22T07:53:14.733Z,3.08
2022-10-22T07:55:41.358Z,3.42
2022-10-22T07:58:08.003Z,3.05
2022-10-22T08:00:34.731Z,3.25
2022-10-22T08:03:01.322Z,3.35
2022-10-22T08:05:27.992Z,3.28
2022-10-22T08:07:54.609Z,2.58
2022-10-22T08:10:21.263Z,2.80
2022-10-22T08:12:47.899Z,3.25
2022-10-22T08:15:14.694Z,3.35
2022-10-22T08:17:41.471Z,2.78
2022-10-22T08:20:08.821Z,2.65
2022-10-22T08:22:35.408Z,3.08
2022-10-22T08:25:02.158Z,3.05
2022-10-22T08:27:28.797Z,3.22
2022-10-22T08:29:55.446Z,3.17
2022-10-22T08:32:22.245Z,3.30
2022-10-22T08:34:49.023Z,2.92
2022-10-22T08:37:17.086Z,3.42
2022-10-22T08:39:44.738Z,3.53
2022-10-22T08:42:30.846Z,3.17
2022-10-22T08:45:06.587Z,2.10
2022-10-22T08:47:53.004Z,2.97
2022-10-22T08:50:26.410Z,2.67
2022-10-22T08:52:59.290Z,3.50
2022-10-22T08:55:26.318Z,2.92
2022-10-22T08:58:05.840Z,3.05
2022-10-22T09:01:03.040Z,3.00
2022-10-22T09:03:39.745Z,3.25
2022-10-22T09:06:18.418Z,2.85
2022-10-22T09:08:46.776Z,2.53
2022-10-22T09:11:13.453Z,3.47
2022-10-22T09:13:43.256Z,2.30
2022-10-22T09:16:18.080Z,2.33
2022-10-22T09:19:05.828Z,2.55
2022-10-22T09:21:58.465Z,2.17
2022-10-22T09:24:39.605Z,1.88
2022-10-22T09:27:18.681Z,2.17
2022-10-22T09:29:47.270Z,2.50
2022-10-22T09:32:17.989Z,2.33
2022-10-22T09:34:46.071Z,2.80
2022-10-22T09:37:12.802Z,2.15
2022-10-22T09:39:40.878Z,2.15
2022-10-22T09:42:08.438Z,1.90
2022-10-22T09:44:37.330Z,1.67
2022-10-22T09:47:05.810Z,1.58
2022-10-22T09:49:35.490Z,1.88
2022-10-22T09:52:03.097Z,2.08
2022-10-22T09:54:32.560Z,1.50
2022-10-22T09:57:06.602Z,1.40
2022-10-22T09:59:37.915Z,1.20
2022-10-22T10:02:33.601Z,2.20
2022-10-22T10:05:04.796Z,1.95
2022-10-22T10:07:32.779Z,1.38
2022-10-22T10:09:59.842Z,1.33
2022-10-22T10:12:38.683Z,1.40
2022-10-22T10:15:26.964Z,1.23
2022-10-22T10:18:12.695Z,1.90
2022-10-22T10:20:55.609Z,0.85
2022-10-22T10:23:42.905Z,1.23
2022-10-22T10:26:47.656Z,1.40
2022-10-22T10:29:21.426Z,0.95
2022-10-22T10:32:13.095Z,1.50
2022-10-22T10:35:15.758Z,1.42
2022-10-22T10:37:49.783Z,1.30
2022-10-22T10:40:40.615Z,1.20
2022-10-22T10:43:16.600Z,1.63
2022-10-22T10:45:55.505Z,1.60
2022-10-22T10:48:47.414Z,1.50
2022-10-22T10:51:33.799Z,1.65
2022-10-22T10:54:44.759Z,1.40
2022-10-22T10:57:22.628Z,1.20
2022-10-22T11:00:01.292Z,1.52
2022-10-22T11:02:36.949Z,1.30
2022-10-22T11:05:30.167Z,1.30
2022-10-22T11:08:05.582Z,0.98
2022-10-22T11:10:54.515Z,1.20
2022-10-22T11:13:45.595Z,1.52
2022-10-22T11:16:23.464Z,1.20
2022-10-22T11:19:10.067Z,1.45
2022-10-22T11:21:40.076Z,1.08
2022-10-22T11:24:30.424Z,1.23
2022-10-22T11:27:07.020Z,1.50
2022-10-22T11:29:41.236Z,1.38
2022-10-22T11:32:15.677Z,1.73
2022-10-22T11:34:48.106Z,1.17
2022-10-22T11:37:15.433Z,1.13
2022-10-22T11:39:55.428Z,0.95
2022-10-22T11:42:32.297Z,0.90
2022-10-22T11:45:02.364Z,0.95
2022-10-22T11:47:35.481Z,1.25
2022-10-22T11:50:25.602Z,1.10
2022-10-22T11:53:01.504Z,1.10
2022-10-22T11:55:46.251Z,1.45
2022-10-22T11:58:53.782Z,1.35
2022-10-22T12:01:30.487Z,1.30
2022-10-22T12:04:06.000Z,1.42
2022-10-22T12:06:53.860Z,0.98
2022-10-22T12:09:24.733Z,1.13
2022-10-22T12:11:55.634Z,0.85
2022-10-22T12:14:35.638Z,1.20
2022-10-22T12:17:05.293Z,1.15
2022-10-22T12:22:10.378Z,1.05
2022-10-22T12:24:44.487Z,1.48
2022-10-22T12:27:38.440Z,1.40
2022-10-22T12:30:30.633Z,1.58
2022-10-22T12:33:02.357Z,0.93
2022-10-22T12:35:32.116Z,1.10
2022-10-22T12:38:02.605Z,1.00
2022-10-22T12:40:33.365Z,1.25
2022-10-22T12:43:05.397Z,1.00
2022-10-22T12:45:34.382Z,1.02
2022-10-22T12:48:04.308Z,1.00
2022-10-22T12:50:40.471Z,1.83
2022-10-22T12:53:15.724Z,1.33
2022-10-22T12:55:44.089Z,1.05
2022-10-22T12:58:17.080Z,1.67
2022-10-22T13:00:46.599Z,1.33
2022-10-22T13:03:30.008Z,1.30
2022-10-22T13:05:56.772Z,1.58
2022-10-22T13:08:27.907Z,1.05
2022-10-22T13:10:55.313Z,1.08
2022-10-22T13:14:01.338Z,1.40
2022-10-22T13:16:30.012Z,1.40
2022-10-22T13:18:56.800Z,1.17
2022-10-22T13:21:34.455Z,1.60
2022-10-22T13:24:22.419Z,1.00
2022-10-22T13:26:53.130Z,1.20
2022-10-22T13:29:21.614Z,1.45
2022-10-22T13:31:51.338Z,1.25
2022-10-22T13:34:21.016Z,1.63
2022-10-22T13:39:23.414Z,1.13
2022-10-22T13:41:50.722Z,1.35
2022-10-22T13:44:18.740Z,1.35
2022-10-22T13:46:46.755Z,1.27
2022-10-22T13:49:18.879Z,1.15
2022-10-22T13:51:46.361Z,1.42
2022-10-22T13:54:20.037Z,1.80
2022-10-22T13:56:46.826Z,2.13
2022-10-22T13:59:13.631Z,1.40
2022-10-22T14:01:41.090Z,1.17
2022-10-22T14:04:11.948Z,1.17
2022-10-22T14:06:38.601Z,1.30
2022-10-22T14:09:08.858Z,1.40
2022-10-22T14:11:35.633Z,0.93
2022-10-22T14:14:08.643Z,1.25
2022-10-22T14:16:37.151Z,1.85
2022-10-22T14:19:04.713Z,1.52
2022-10-22T14:21:37.732Z,1.35
2022-10-22T14:24:07.087Z,1.67
2022-10-22T14:26:36.082Z,1.25
2022-10-22T14:29:11.494Z,1.80
2022-10-22T14:34:13.627Z,1.50
2022-10-22T14:36:40.385Z,1.65
2022-10-22T14:39:07.035Z,2.22
2022-10-22T14:41:33.804Z,1.40
2022-10-22T14:44:00.524Z,2.00
2022-10-22T14:46:27.138Z,1.88
2022-10-22T14:48:53.745Z,1.42
2022-10-22T14:51:21.943Z,1.80
2022-10-22T14:53:48.934Z,2.20
2022-10-22T14:56:18.080Z,1.90
2022-10-22T14:58:45.533Z,1.55
2022-10-22T15:01:12.434Z,1.45
2022-10-22T15:03:39.069Z,1.50
2022-10-22T15:06:06.544Z,1.80
2022-10-22T15:08:33.216Z,1.77
2022-10-22T15:11:06.908Z,1.80
2022-10-22T15:13:33.748Z,1.92
2022-10-22T15:16:00.957Z,1.85
2022-10-22T15:18:28.310Z,1.58
2022-10-22T15:21:03.558Z,1.50
2022-10-22T15:23:31.128Z,1.60
2022-10-22T15:25:57.844Z,2.03
2022-10-22T15:28:25.085Z,2.55
2022-10-22T15:30:59.600Z,1.70
2022-10-22T15:33:27.869Z,2.00
2022-10-22T15:35:55.663Z,4.38
2022-10-22T15:38:26.576Z,4.40
2022-10-22T15:41:04.560Z,6.88
2022-10-22T15:43:33.207Z,6.07
2022-10-22T15:46:15.875Z,3.10
2022-10-22T15:48:42.641Z,2.38
2022-10-22T15:51:14.123Z,2.45
2022-10-22T15:53:41.349Z,3.03
2022-10-22T15:56:09.744Z,4.75
2022-10-22T15:58:36.523Z,3.70
2022-10-22T16:01:11.770Z,2.72
2022-10-22T16:03:38.826Z,2.35
2022-10-22T16:06:06.911Z,1.90
2022-10-22T16:08:33.696Z,2.95
2022-10-22T16:11:00.606Z,2.75
2022-10-22T16:13:27.440Z,2.50
2022-10-22T16:15:54.407Z,3.95
2022-10-22T16:18:21.662Z,3.15
2022-10-22T16:20:48.251Z,3.50
2022-10-22T16:23:18.627Z,2.50
2022-10-22T16:25:46.410Z,3.38
2022-10-22T16:28:13.339Z,5.50
2022-10-22T16:30:40.286Z,5.22
2022-10-22T16:33:08.147Z,5.03
2022-10-22T16:35:34.786Z,4.97
2022-10-22T16:38:01.407Z,4.40
2022-10-22T16:40:29.212Z,5.85
2022-10-22T16:42:55.881Z,5.03
2022-10-22T16:45:22.472Z,5.85
2022-10-22T16:47:49.515Z,5.20
2022-10-22T16:50:16.266Z,5.90
2022-10-22T16:52:42.999Z,5.72
2022-10-22T16:55:09.846Z,5.80
2022-10-22T16:57:36.471Z,6.30
2022-10-22T17:00:05.477Z,6.10
2022-10-22T17:02:32.112Z,11.52
2022-10-22T17:04:58.858Z,16.60
2022-10-22T17:07:25.470Z,18.55
2022-10-22T17:09:52.109Z,10.23
2022-10-22T17:12:18.727Z,10.63
2022-10-22T17:14:45.314Z,17.88
2022-10-22T17:17:12.065Z,15.57
2022-10-22T17:19:38.896Z,40.00
2022-10-22T17:22:05.685Z,27.45
2022-10-22T17:24:32.352Z,36.67
2022-10-22T17:26:59.018Z,9.82
2022-10-22T17:29:25.684Z,17.15
2022-10-22T17:31:52.589Z,12.10
2022-10-22T17:34:19.329Z,10.70
2022-10-22T17:36:46.096Z,8.98
2022-10-22T17:39:18.049Z,17.75
2022-10-22T17:41:45.910Z,11.63
2022-10-22T17:44:13.343Z,22.65
2022-10-22T17:46:40.023Z,9.80
2022-10-22T17:49:13.300Z,6.07
2022-10-22T17:51:40.775Z,5.22
2022-10-22T17:54:09.859Z,8.10
2022-10-22T17:56:40.191Z,7.68
2022-10-22T17:59:08.159Z,36.38
2022-10-22T18:01:37.883Z,7.80
2022-10-22T18:04:07.905Z,6.68
2022-10-22T18:06:35.528Z,5.55
2022-10-22T18:09:07.275Z,19.25
2022-10-22T18:11:36.432Z,9.43
2022-10-22T18:14:03.525Z,22.70
2022-10-22T18:16:30.378Z,9.02
2022-10-22T18:18:58.407Z,10.68
2022-10-22T18:21:27.317Z,19.00
2022-10-22T18:23:54.150Z,17.40
2022-10-22T18:26:24.413Z,13.43
2022-10-22T18:28:53.482Z,14.95
2022-10-22T18:31:22.654Z,19.10
2022-10-22T18:33:49.753Z,11.13
2022-10-22T18:36:21.723Z,16.10
2022-10-22T18:38:55.740Z,26.77
2022-10-22T18:41:23.119Z,15.48
2022-10-22T18:44:02.960Z,16.73
2022-10-22T18:46:31.010Z,9.75
2022-10-22T18:48:58.674Z,8.23
2022-10-22T18:51:28.250Z,8.73
2022-10-22T18:54:05.053Z,8.48
2022-10-22T18:56:39.473Z,9.05
2022-10-22T18:59:06.227Z,9.40
2022-10-22T19:01:35.409Z,8.55
2022-10-22T19:04:02.204Z,6.50
2022-10-22T19:06:35.817Z,7.22
2022-10-22T19:09:04.589Z,9.82
2022-10-22T19:11:31.307Z,11.63
2022-10-22T19:13:58.437Z,8.85
2022-10-22T19:16:26.806Z,6.35
2022-10-22T19:19:00.033Z,8.68
2022-10-22T19:21:27.120Z,9.52
2022-10-22T19:23:58.015Z,8.45
2022-10-22T19:26:26.462Z,8.93
2022-10-22T19:28:57.097Z,4.90
2022-10-22T19:31:25.272Z,4.88
2022-10-22T19:33:54.608Z,7.78
2022-10-22T19:36:24.192Z,5.45
2022-10-22T19:38:51.640Z,8.60
2022-10-22T19:41:20.174Z,7.05
2022-10-22T19:43:49.836Z,6.32
2022-10-22T19:46:17.699Z,5.65
2022-10-22T19:51:25.933Z,6.43
2022-10-22T19:53:59.129Z,9.50
2022-10-22T19:56:26.245Z,8.63
2022-10-22T19:58:52.993Z,6.20
2022-10-22T20:01:20.828Z,5.15
2022-10-22T20:03:48.572Z,4.60
2022-10-22T20:06:17.544Z,5.25
2022-10-22T20:08:45.008Z,3.85
2022-10-22T20:11:23.099Z,4.40
2022-10-22T20:13:52.288Z,3.58
2022-10-22T20:16:25.061Z,3.45
2022-10-22T20:18:52.543Z,4.07
2022-10-22T20:21:20.028Z,3.50
2022-10-22T20:23:47.341Z,2.67
2022-10-22T20:26:14.266Z,3.58
2022-10-22T20:28:40.932Z,2.92
2022-10-22T20:31:16.480Z,4.75
2022-10-22T20:33:43.115Z,4.20
2022-10-22T20:36:20.916Z,3.13
2022-10-22T20:38:50.778Z,3.10
2022-10-22T20:41:20.437Z,2.50
2022-10-22T20:43:49.064Z,4.63
2022-10-22T20:46:30.962Z,3.03
2022-10-22T20:49:14.558Z,5.22
2022-10-22T20:51:41.281Z,2.80
2022-10-22T20:54:08.752Z,2.22
2022-10-22T20:56:37.038Z,2.90
2022-10-22T20:59:04.799Z,2.47
2022-10-22T21:01:37.427Z,3.45
2022-10-22T21:04:04.970Z,1.98
2022-10-22T21:06:32.267Z,2.55
2022-10-22T21:08:58.989Z,4.57
2022-10-22T21:11:25.806Z,3.08
2022-10-22T21:13:52.395Z,2.75
2022-10-22T21:16:19.763Z,14.70
2022-10-22T21:18:47.245Z,18.25
2022-10-22T21:21:16.931Z,56.30
2022-10-22T21:26:10.522Z,10.20
2022-10-22T21:28:37.621Z,7.78
2022-10-22T21:31:09.831Z,3.20
2022-10-22T21:33:39.869Z,11.32
2022-10-22T21:36:08.978Z,4.15
2022-10-22T21:38:36.667Z,69.53
2022-10-22T21:41:12.590Z,41.83
2022-10-22T21:43:40.779Z,18.70
2022-10-22T21:46:16.705Z,8.52
2022-10-22T21:48:43.679Z,11.65
2022-10-22T21:51:16.326Z,4.88
2022-10-22T21:53:43.818Z,39.85
2022-10-22T21:56:16.156Z,18.77
2022-10-22T21:58:43.011Z,9.90
2022-10-22T22:01:09.798Z,4.75
2022-10-22T22:03:36.466Z,10.38
2022-10-22T22:06:05.854Z,3.03
2022-10-22T22:08:33.491Z,8.70
2022-10-22T22:11:06.330Z,11.73
2022-10-22T22:13:33.370Z,5.10
2022-10-22T22:16:05.966Z,3.28
2022-10-22T22:18:33.619Z,3.08
2022-10-22T22:21:03.283Z,3.45
2022-10-22T22:26:01.048Z,4.50
2022-10-22T22:28:29.814Z,3.13
2022-10-22T22:30:57.025Z,3.13
2022-10-22T22:33:23.698Z,3.50
2022-10-22T22:35:50.761Z,3.00
2022-10-22T22:38:17.538Z,5.88
2022-10-22T22:40:44.367Z,3.40
2022-10-22T22:43:11.257Z,4.05
2022-10-22T22:45:40.662Z,3.15
2022-10-22T22:48:07.806Z,3.50
2022-10-22T22:50:36.250Z,4.28
2022-10-22T22:53:03.143Z,3.15
2022-10-22T22:55:31.911Z,2.92
2022-10-22T22:57:58.858Z,3.53
2022-10-22T23:00:25.694Z,2.97
2022-10-22T23:02:56.101Z,3.50
2022-10-22T23:05:22.906Z,2.60
2022-10-22T23:07:49.521Z,4.20
2022-10-22T23:10:16.270Z,3.00
2022-10-22T23:12:43.663Z,2.97
2022-10-22T23:15:10.960Z,4.18
2022-10-22T23:17:38.461Z,3.80
2022-10-22T23:20:05.665Z,3.88
2022-10-22T23:22:32.335Z,3.90
2022-10-22T23:24:58.983Z,3.75
2022-10-22T23:27:25.718Z,19.67
2022-10-22T23:29:52.261Z,11.68
2022-10-22T23:32:18.874Z,17.42
2022-10-22T23:34:45.793Z,19.45
2022-10-22T23:37:12.574Z,22.83
2022-10-22T23:39:39.194Z,6.88
2022-10-22T23:42:05.840Z,12.73
2022-10-22T23:44:32.619Z,8.38
2022-10-22T23:46:59.250Z,9.32
2022-10-22T23:49:25.947Z,10.70
2022-10-22T23:51:52.701Z,6.40
2022-10-22T23:54:19.440Z,10.15
2022-10-22T23:56:46.388Z,8.32
